createdAt,value
2018-08-23T00:01:33.161Z,28.83
2018-08-23T00:04:05.391Z,28.43
2018-08-23T00:06:34.514Z,32.53
2018-08-23T00:09:03.148Z,34.83
2018-08-23T00:11:34.089Z,32.27
2018-08-23T00:14:02.944Z,30.73
2018-08-23T00:16:47.494Z,35.97
2018-08-23T00:19:16.977Z,31.33
2018-08-23T00:21:49.029Z,30.27
2018-08-23T00:24:18.658Z,32.60
2018-08-23T00:26:48.580Z,26.70
2018-08-23T00:29:23.452Z,31.63
2018-08-23T00:31:52.963Z,30.67
2018-08-23T00:34:24.072Z,31.40
2018-08-23T00:36:53.305Z,29.17
2018-08-23T00:39:22.244Z,30.17
2018-08-23T00:41:56.343Z,32.47
2018-08-23T00:44:24.952Z,30.20
2018-08-23T00:46:55.214Z,31.80
2018-08-23T00:49:28.254Z,32.73
2018-08-23T00:51:57.376Z,26.70
2018-08-23T00:54:26.290Z,29.97
2018-08-23T00:56:55.200Z,31.93
2018-08-23T00:59:23.678Z,29.80
2018-08-23T01:02:00.188Z,34.60
2018-08-23T01:04:29.420Z,29.07
2018-08-23T01:06:57.985Z,32.90
2018-08-23T01:09:26.518Z,32.23
2018-08-23T01:11:55.067Z,31.10
2018-08-23T01:14:23.588Z,37.23
2018-08-23T01:16:57.817Z,32.30
2018-08-23T01:19:37.815Z,31.53
2018-08-23T01:22:07.336Z,27.57
2018-08-23T01:24:36.245Z,31.97
2018-08-23T01:27:05.260Z,37.53
2018-08-23T01:29:34.257Z,30.33
2018-08-23T01:32:11.315Z,28.80
2018-08-23T01:34:40.189Z,33.07
2018-08-23T01:37:09.241Z,28.57
2018-08-23T01:39:38.124Z,28.80
2018-08-23T01:42:07.092Z,32.77
2018-08-23T01:44:40.769Z,34.93
2018-08-23T01:47:09.270Z,27.73
2018-08-23T01:49:38.177Z,30.50
2018-08-23T01:52:07.049Z,28.27
2018-08-23T01:54:35.890Z,29.37
2018-08-23T01:57:04.518Z,26.07
2018-08-23T01:59:33.444Z,27.77
2018-08-23T02:02:06.212Z,24.60
2018-08-23T02:04:35.130Z,26.47
2018-08-23T02:07:04.162Z,26.90
2018-08-23T02:09:33.080Z,25.10
2018-08-23T02:12:01.639Z,25.33
2018-08-23T02:14:32.774Z,24.80
2018-08-23T02:17:01.283Z,25.33
2018-08-23T02:19:29.812Z,25.97
2018-08-23T02:21:58.650Z,25.87
2018-08-23T02:24:31.844Z,24.43
2018-08-23T02:27:00.317Z,24.83
2018-08-23T02:29:38.654Z,24.30
2018-08-23T02:32:08.108Z,24.43
2018-08-23T02:34:42.085Z,25.87
2018-08-23T02:37:12.025Z,21.43
2018-08-23T02:39:41.538Z,27.57
2018-08-23T02:42:12.419Z,27.23
2018-08-23T02:44:41.794Z,27.27
2018-08-23T02:47:10.261Z,27.37
2018-08-23T02:49:39.977Z,26.90
2018-08-23T02:52:08.447Z,27.30
2018-08-23T02:54:38.631Z,26.97
2018-08-23T02:57:09.746Z,31.57
2018-08-23T02:59:38.286Z,31.57
2018-08-23T03:02:12.318Z,27.87
2018-08-23T03:04:40.820Z,29.37
2018-08-23T03:07:11.536Z,28.40
2018-08-23T03:09:42.507Z,26.47
2018-08-23T03:12:20.141Z,25.93
2018-08-23T03:14:49.283Z,26.67
2018-08-23T03:18:23.327Z,26.47
2018-08-23T05:52:43.977Z,28.37
2018-08-23T05:55:12.548Z,38.23
2018-08-23T05:57:41.417Z,36.37
2018-08-23T06:00:10.036Z,44.97
2018-08-23T06:02:38.953Z,46.50
2018-08-23T06:05:07.867Z,41.50
2018-08-23T06:07:36.723Z,45.73
2018-08-23T06:10:05.699Z,43.70
2018-08-23T06:12:35.262Z,51.63
2018-08-23T06:15:04.353Z,59.93
2018-08-23T06:17:33.177Z,51.50
2018-08-23T06:20:01.709Z,53.77
2018-08-23T06:22:30.627Z,55.00
2018-08-23T06:24:59.610Z,59.70
2018-08-23T06:27:28.561Z,61.40
2018-08-23T06:29:57.089Z,53.17
2018-08-23T06:32:25.564Z,50.70
2018-08-23T06:34:54.519Z,55.33
2018-08-23T06:37:23.606Z,56.47
2018-08-23T06:39:52.549Z,54.53
2018-08-23T06:42:26.616Z,56.77
2018-08-23T06:44:56.636Z,51.67
2018-08-23T06:47:26.934Z,42.17
2018-08-23T06:49:56.152Z,60.27
2018-08-23T06:52:50.289Z,55.60
2018-08-23T06:55:24.582Z,60.53
2018-08-23T06:57:57.432Z,58.40
2018-08-23T07:00:26.932Z,54.67
2018-08-23T07:02:55.968Z,56.07
2018-08-23T07:05:24.914Z,56.93
2018-08-23T07:07:53.770Z,54.60
2018-08-23T07:10:22.770Z,56.77
2018-08-23T07:12:51.849Z,54.23
2018-08-23T07:15:20.834Z,48.13
2018-08-23T07:17:49.409Z,58.40
2018-08-23T07:20:18.297Z,56.27
2018-08-23T07:22:46.725Z,54.93
2018-08-23T07:25:16.500Z,53.63
2018-08-23T07:27:45.393Z,48.87
2018-08-23T07:30:15.286Z,52.57
2018-08-23T07:32:45.493Z,47.77
2018-08-23T07:35:19.987Z,51.37
2018-08-23T07:37:50.220Z,51.97
2018-08-23T07:40:20.315Z,47.97
2018-08-23T07:42:50.185Z,45.80
2018-08-23T07:45:19.151Z,45.13
2018-08-23T07:47:50.368Z,43.13
2018-08-23T07:50:19.493Z,49.00
2018-08-23T07:52:49.365Z,49.77
2018-08-23T07:55:18.290Z,44.50
2018-08-23T07:57:47.262Z,47.67
2018-08-23T08:00:26.291Z,49.10
2018-08-23T08:02:54.763Z,46.87
2018-08-23T08:05:28.061Z,41.07
2018-08-23T08:07:56.525Z,46.27
2018-08-23T08:10:29.259Z,47.17
2018-08-23T08:12:58.248Z,40.47
2018-08-23T08:15:26.810Z,38.83
2018-08-23T08:17:55.794Z,41.83
2018-08-23T08:20:24.730Z,42.50
2018-08-23T08:22:53.669Z,38.97
2018-08-23T08:25:22.505Z,34.17
2018-08-23T08:27:51.123Z,39.63
2018-08-23T08:30:23.909Z,39.20
2018-08-23T08:32:52.846Z,41.97
2018-08-23T08:35:21.689Z,41.80
2018-08-23T08:37:50.719Z,36.37
2018-08-23T08:40:26.131Z,34.33
2018-08-23T08:42:55.509Z,40.83
2018-08-23T08:45:27.143Z,38.33
2018-08-23T08:48:05.914Z,34.80
2018-08-23T08:50:38.977Z,34.47
2018-08-23T08:53:07.401Z,38.97
2018-08-23T08:55:36.374Z,35.70
2018-08-23T08:58:05.432Z,38.07
2018-08-23T09:00:44.085Z,41.97
2018-08-23T09:03:12.729Z,42.27
2018-08-23T09:05:41.576Z,40.73
2018-08-23T09:08:10.445Z,45.77
2018-08-23T09:10:39.035Z,46.40
2018-08-23T09:13:07.477Z,43.73
2018-08-23T09:15:36.402Z,45.43
2018-08-23T09:18:05.213Z,48.17
2018-08-23T09:20:34.255Z,44.30
2018-08-23T09:23:02.729Z,44.73
2018-08-23T09:25:36.863Z,44.83
2018-08-23T09:28:05.700Z,54.77
2018-08-23T09:30:34.173Z,48.20
2018-08-23T09:33:08.029Z,45.37
2018-08-23T09:35:36.828Z,51.33
2018-08-23T09:38:11.146Z,50.47
2018-08-23T09:40:40.032Z,48.30
2018-08-23T09:43:08.957Z,52.87
2018-08-23T09:45:38.734Z,45.83
2018-08-23T09:48:07.718Z,45.10
2018-08-23T09:50:36.657Z,51.03
2018-08-23T09:53:11.589Z,49.20
2018-08-23T09:55:40.159Z,48.63
2018-08-23T09:58:39.855Z,55.17
2018-08-23T10:01:14.005Z,50.97
2018-08-23T10:03:48.255Z,51.63
2018-08-23T10:06:23.066Z,49.57
2018-08-23T10:09:04.706Z,54.50
2018-08-23T10:12:36.161Z,52.73
2018-08-23T10:15:10.409Z,54.50
2018-08-23T10:17:44.301Z,54.00
2018-08-23T10:20:18.414Z,56.80
2018-08-23T10:22:51.501Z,56.27
2018-08-23T10:25:30.935Z,53.83
2018-08-23T10:28:00.155Z,51.10
2018-08-23T10:30:29.367Z,48.40
2018-08-23T10:32:58.234Z,50.17
2018-08-23T10:35:26.754Z,54.73
2018-08-23T10:37:55.648Z,56.27
2018-08-23T10:40:24.932Z,44.80
2018-08-23T10:42:53.770Z,49.80
2018-08-23T10:45:22.368Z,47.87
2018-08-23T10:47:56.468Z,44.77
2018-08-23T10:50:26.022Z,41.70
2018-08-23T10:52:54.516Z,38.53
2018-08-23T10:55:23.389Z,43.33
2018-08-23T10:57:52.403Z,35.77
2018-08-23T11:00:21.318Z,45.23
2018-08-23T11:02:50.243Z,34.90
2018-08-23T11:05:19.108Z,43.07
2018-08-23T11:07:53.227Z,45.43
2018-08-23T11:10:27.443Z,36.17
2018-08-23T11:13:01.330Z,37.40
2018-08-23T11:15:30.254Z,30.77
2018-08-23T11:18:04.450Z,37.13
2018-08-23T11:20:38.565Z,39.70
2018-08-23T11:23:07.822Z,38.00
2018-08-23T11:25:36.808Z,35.87
2018-08-23T11:28:10.798Z,40.33
2018-08-23T11:30:39.419Z,39.77
2018-08-23T11:33:08.782Z,37.83
2018-08-23T11:35:37.342Z,42.73
2018-08-23T11:38:07.295Z,41.17
2018-08-23T11:40:36.310Z,34.50
2018-08-23T11:43:05.483Z,38.30
2018-08-23T11:45:33.995Z,40.37
2018-08-23T11:48:02.931Z,28.47
2018-08-23T11:50:31.833Z,31.67
2018-08-23T11:53:00.765Z,29.50
2018-08-23T11:55:29.650Z,39.60
2018-08-23T11:57:58.664Z,38.40
2018-08-23T12:00:27.107Z,31.00
2018-08-23T12:02:56.161Z,29.60
2018-08-23T12:05:25.070Z,28.07
2018-08-23T12:07:55.676Z,25.00
2018-08-23T12:10:25.207Z,24.07
2018-08-23T12:12:55.041Z,24.13
2018-08-23T12:15:26.480Z,28.67
2018-08-23T12:17:55.786Z,21.03
2018-08-23T12:20:24.242Z,20.10
2018-08-23T12:22:53.155Z,23.53
2018-08-23T12:25:22.104Z,23.70
2018-08-23T12:28:00.134Z,17.23
2018-08-23T12:30:29.648Z,20.27
2018-08-23T12:32:58.516Z,20.60
2018-08-23T12:35:27.575Z,20.60
2018-08-23T12:38:02.789Z,19.70
2018-08-23T12:40:37.465Z,15.63
2018-08-23T12:43:10.596Z,12.13
2018-08-23T12:45:41.999Z,13.80
2018-08-23T12:48:12.154Z,10.17
2018-08-23T12:50:42.544Z,8.20
2018-08-23T12:53:11.432Z,9.43
2018-08-23T12:55:40.368Z,10.73
2018-08-23T12:58:11.247Z,10.53
2018-08-23T13:00:41.422Z,10.50
2018-08-23T13:03:10.531Z,9.10
2018-08-23T13:05:39.807Z,10.07
2018-08-23T13:08:08.667Z,8.67
2018-08-23T13:10:37.737Z,10.23
2018-08-23T13:13:06.851Z,10.00
2018-08-23T13:15:36.000Z,8.00
2018-08-23T13:18:05.268Z,10.33
2018-08-23T13:20:34.264Z,8.17
2018-08-23T13:23:03.161Z,6.60
2018-08-23T13:25:32.112Z,10.57
2018-08-23T13:28:00.998Z,8.20
2018-08-23T13:30:29.987Z,9.17
2018-08-23T13:32:58.884Z,8.57
2018-08-23T13:35:27.979Z,6.90
2018-08-23T13:37:56.827Z,6.60
2018-08-23T13:40:25.768Z,7.97
2018-08-23T13:42:54.584Z,9.00
2018-08-23T13:45:23.567Z,7.73
2018-08-23T13:47:52.484Z,6.90
2018-08-23T13:50:21.412Z,7.93
2018-08-23T13:52:50.340Z,9.73
2018-08-23T13:55:19.364Z,10.37
2018-08-23T13:57:48.308Z,8.87
2018-08-23T14:00:22.440Z,10.83
2018-08-23T14:02:50.922Z,8.67
2018-08-23T14:05:19.855Z,9.30
2018-08-23T14:07:48.686Z,8.57
2018-08-23T14:10:17.208Z,8.87
2018-08-23T14:12:46.125Z,10.43
2018-08-23T14:15:19.860Z,8.93
2018-08-23T14:17:48.754Z,13.70
2018-08-23T14:20:17.850Z,11.13
2018-08-23T14:22:46.710Z,10.70
2018-08-23T14:25:15.583Z,9.47
2018-08-23T14:27:44.473Z,9.73
2018-08-23T14:30:13.412Z,11.17
2018-08-23T14:32:42.338Z,13.20
2018-08-23T14:35:11.524Z,13.33
2018-08-23T14:37:40.871Z,12.00
2018-08-23T14:40:09.824Z,12.37
2018-08-23T14:42:38.704Z,10.63
2018-08-23T14:45:07.299Z,13.57
2018-08-23T14:47:41.194Z,12.83
2018-08-23T14:50:10.113Z,13.67
2018-08-23T14:52:39.042Z,11.53
2018-08-23T14:55:07.980Z,10.63
2018-08-23T14:57:37.682Z,13.13
2018-08-23T15:00:07.425Z,13.73
2018-08-23T15:02:36.417Z,12.80
2018-08-23T15:05:05.302Z,13.73
2018-08-23T15:07:34.254Z,13.77
2018-08-23T15:10:03.114Z,13.20
2018-08-23T15:12:32.095Z,12.95
2018-08-23T15:15:00.572Z,13.10
2018-08-23T15:17:29.564Z,12.87
2018-08-23T15:19:58.006Z,11.67
2018-08-23T15:22:26.975Z,11.63
2018-08-23T15:24:55.818Z,13.17
2018-08-23T15:27:24.424Z,12.40
2018-08-23T15:29:53.618Z,12.60
2018-08-23T15:32:22.499Z,11.57
2018-08-23T15:34:50.935Z,11.90
2018-08-23T15:37:19.891Z,11.25
2018-08-23T15:39:48.836Z,11.60
2018-08-23T15:42:17.362Z,10.30
2018-08-23T15:44:45.850Z,12.07
2018-08-23T15:47:14.810Z,9.50
2018-08-23T15:49:43.695Z,11.78
2018-08-23T15:52:12.669Z,10.53
2018-08-23T15:54:41.595Z,9.70
2018-08-23T15:57:10.456Z,9.43
2018-08-23T15:59:39.315Z,9.68
2018-08-23T16:02:08.307Z,9.70
2018-08-23T16:04:37.175Z,9.63
2018-08-23T16:07:06.244Z,8.23
2018-08-23T16:09:35.104Z,8.27
2018-08-23T16:12:04.072Z,7.08
2018-08-23T16:14:32.944Z,10.82
2018-08-23T16:17:07.220Z,11.03
2018-08-23T16:20:40.748Z,6.90
2018-08-23T16:23:09.675Z,6.80
2018-08-23T16:25:43.471Z,7.30
2018-08-23T16:28:12.614Z,7.17
2018-08-23T16:30:42.785Z,7.67
2018-08-23T16:33:12.348Z,6.07
2018-08-23T16:35:41.819Z,7.27
2018-08-23T16:38:10.681Z,7.37
2018-08-23T16:40:39.229Z,7.37
2018-08-23T16:43:08.215Z,9.47
2018-08-23T16:45:37.127Z,6.30
2018-08-23T16:48:06.007Z,8.60
2018-08-23T16:50:35.008Z,7.00
2018-08-23T16:53:03.504Z,6.77
2018-08-23T16:55:32.393Z,7.03
2018-08-23T16:58:00.825Z,6.00
2018-08-23T17:00:29.459Z,6.90
2018-08-23T17:02:57.888Z,6.13
2018-08-23T17:05:26.795Z,6.10
2018-08-23T17:07:55.714Z,6.97
2018-08-23T17:10:24.299Z,6.50
2018-08-23T17:12:52.773Z,8.83
2018-08-23T17:15:21.275Z,7.87
2018-08-23T17:17:57.553Z,6.60
2018-08-23T17:20:26.391Z,6.80
2018-08-23T17:22:55.299Z,7.37
2018-08-23T17:25:24.157Z,9.03
2018-08-23T17:27:53.150Z,8.13
2018-08-23T17:30:21.586Z,8.07
2018-08-23T17:32:50.548Z,7.63
2018-08-23T17:35:19.016Z,6.70
2018-08-23T17:37:47.954Z,9.90
2018-08-23T17:40:16.835Z,7.10
2018-08-23T17:42:45.827Z,8.40
2018-08-23T17:45:15.273Z,10.03
2018-08-23T17:47:43.841Z,13.03
2018-08-23T17:50:12.290Z,7.73
2018-08-23T17:52:40.804Z,11.43
2018-08-23T17:55:09.289Z,9.10
2018-08-23T17:57:38.268Z,7.20
2018-08-23T18:00:07.144Z,7.47
2018-08-23T18:02:35.694Z,7.57
2018-08-23T18:05:04.617Z,7.37
2018-08-23T18:07:33.465Z,9.53
2018-08-23T18:10:02.309Z,9.87
2018-08-23T18:12:30.815Z,9.77
2018-08-23T18:14:59.630Z,12.23
2018-08-23T18:17:28.581Z,13.30
2018-08-23T18:19:57.523Z,15.83
2018-08-23T18:22:26.469Z,25.83
2018-08-23T18:24:54.914Z,18.13
2018-08-23T18:27:23.497Z,21.00
2018-08-23T18:29:52.333Z,18.63
2018-08-23T18:32:21.375Z,21.00
2018-08-23T18:34:49.925Z,20.97
2018-08-23T18:37:18.484Z,16.10
2018-08-23T18:39:47.347Z,22.80
2018-08-23T18:42:16.340Z,19.30
2018-08-23T18:44:45.239Z,21.47
2018-08-23T18:47:14.620Z,19.07
2018-08-23T18:49:43.174Z,18.33
2018-08-23T18:52:12.092Z,18.27
2018-08-23T18:54:40.533Z,23.03
2018-08-23T18:57:09.109Z,24.20
2018-08-23T18:59:37.966Z,23.00
2018-08-23T19:02:07.012Z,21.23
2018-08-23T19:04:35.492Z,22.23
2018-08-23T19:07:06.488Z,21.50
2018-08-23T19:09:34.962Z,18.43
2018-08-23T19:12:03.985Z,18.67
2018-08-23T19:14:32.886Z,17.83
2018-08-23T19:17:06.861Z,17.63
2018-08-23T19:19:35.357Z,18.43
2018-08-23T19:22:04.372Z,21.67
2018-08-23T19:24:32.851Z,22.37
2018-08-23T19:27:01.857Z,21.90
2018-08-23T19:29:30.320Z,19.10
2018-08-23T19:31:59.285Z,23.20
2018-08-23T19:34:28.215Z,22.77
2018-08-23T19:36:56.781Z,17.03
2018-08-23T19:39:25.738Z,21.63
2018-08-23T19:41:54.724Z,21.47
2018-08-23T19:44:23.602Z,20.33
2018-08-23T19:47:57.111Z,21.13
2018-08-23T19:50:25.992Z,23.23
2018-08-23T19:52:54.895Z,20.43
2018-08-23T19:55:23.746Z,23.50
2018-08-23T19:57:52.678Z,22.63
2018-08-23T20:00:21.630Z,22.27
2018-08-23T20:02:50.485Z,23.90
2018-08-23T20:05:19.543Z,18.40
2018-08-23T20:07:48.526Z,19.73
2018-08-23T20:10:17.517Z,17.73
2018-08-23T20:12:46.082Z,18.67
2018-08-23T20:15:18.261Z,20.90
2018-08-23T20:17:47.224Z,21.67
2018-08-23T20:20:16.196Z,22.47
2018-08-23T20:22:45.730Z,21.53
2018-08-23T20:25:14.707Z,17.60
2018-08-23T20:27:43.686Z,17.20
2018-08-23T20:30:12.681Z,16.33
2018-08-23T20:32:41.578Z,17.30
2018-08-23T20:35:10.199Z,17.30
2018-08-23T20:37:39.068Z,15.87
2018-08-23T20:40:08.073Z,17.07
2018-08-23T20:42:36.524Z,16.87
2018-08-23T20:45:06.930Z,19.63
2018-08-23T20:47:35.384Z,19.60
2018-08-23T20:50:04.413Z,17.20
2018-08-23T20:52:33.343Z,18.20
2018-08-23T20:55:04.430Z,17.23
2018-08-23T20:57:33.304Z,20.83
2018-08-23T21:00:01.882Z,15.57
2018-08-23T21:02:30.795Z,18.03
2018-08-23T21:04:59.678Z,18.27
2018-08-23T21:07:28.167Z,20.10
2018-08-23T21:09:57.249Z,16.00
2018-08-23T21:12:26.103Z,19.30
2018-08-23T21:14:55.074Z,22.10
2018-08-23T21:17:23.916Z,18.53
2018-08-23T21:19:52.914Z,14.33
2018-08-23T21:22:21.782Z,21.20
2018-08-23T21:24:51.884Z,20.27
2018-08-23T21:27:20.375Z,22.30
2018-08-23T21:29:49.373Z,18.13
2018-08-23T21:32:18.212Z,22.10
2018-08-23T21:34:47.119Z,26.23
2018-08-23T21:37:15.576Z,22.77
2018-08-23T21:39:44.115Z,18.73
2018-08-23T21:42:12.962Z,19.83
2018-08-23T21:44:41.829Z,17.87
2018-08-23T21:47:10.709Z,15.97
2018-08-23T21:49:39.231Z,16.60
2018-08-23T21:52:07.713Z,16.50
2018-08-23T21:54:36.688Z,16.40
2018-08-23T21:57:05.586Z,15.53
2018-08-23T21:59:34.581Z,19.77
2018-08-23T22:02:08.682Z,17.10
2018-08-23T22:04:41.796Z,17.30
2018-08-23T22:07:10.751Z,15.43
2018-08-23T22:09:39.668Z,15.83
2018-08-23T22:12:08.703Z,18.70
2018-08-23T22:14:37.645Z,17.13
2018-08-23T22:17:06.109Z,20.87
2018-08-23T22:19:34.649Z,17.10
2018-08-23T22:22:03.579Z,20.67
2018-08-23T22:24:32.138Z,17.30
2018-08-23T22:27:00.618Z,17.23
2018-08-23T22:29:29.227Z,18.40
2018-08-23T22:31:58.054Z,18.63
2018-08-23T22:34:26.555Z,17.17
2018-08-23T22:36:55.428Z,15.53
2018-08-23T22:39:24.001Z,18.73
2018-08-23T22:41:52.882Z,17.77
2018-08-23T22:44:21.431Z,17.97
2018-08-23T22:46:50.294Z,15.27
2018-08-23T22:49:19.255Z,16.57
2018-08-23T22:51:47.708Z,17.33
2018-08-23T22:54:17.706Z,16.90
2018-08-23T22:56:46.524Z,15.80
2018-08-23T22:59:15.427Z,18.10
2018-08-23T23:01:43.880Z,16.67
2018-08-23T23:04:18.077Z,18.60
2018-08-23T23:06:46.898Z,16.97
2018-08-23T23:09:15.861Z,16.77
2018-08-23T23:11:44.419Z,21.73
2018-08-23T23:14:12.923Z,16.20
2018-08-23T23:16:41.853Z,16.87
2018-08-23T23:19:10.783Z,16.17
2018-08-23T23:21:39.287Z,15.80
2018-08-23T23:24:13.656Z,16.00
2018-08-23T23:26:42.493Z,17.83
2018-08-23T23:29:11.367Z,15.50
2018-08-23T23:31:40.213Z,14.10
2018-08-23T23:34:09.087Z,14.50
2018-08-23T23:36:38.025Z,16.20
2018-08-23T23:39:08.421Z,14.73
2018-08-23T23:41:37.321Z,15.97
2018-08-23T23:44:05.840Z,13.13
2018-08-23T23:46:34.763Z,13.57
2018-08-23T23:49:03.706Z,14.23
2018-08-23T23:51:32.614Z,13.50
2018-08-23T23:54:01.618Z,15.63
2018-08-23T23:56:30.148Z,15.43
2018-08-23T23:58:58.732Z,13.97
